Time;durP1;ratioP1;P1;durP2;ratioP2;P2;SDS_P1;SDS_P2;PMS_P1;PMS_P2;Temp;Humidity;BMP_temperature;BMP_pressure;BME280_temperature;BME280_humidity;BME280_pressure;Samples;Min_cycle;Max_cycle;Signal;HPM_P1;HPM_P2
2022/04/10 00:00:16;;;;;;;0.38;0.20;;;;;;;23.58;54.50;99095.53;5038615;28;20404;-65
2022/04/10 00:02:42;;;;;;;0.43;0.22;;;;;;;23.63;54.71;99095.63;5037828;28;20037;-65
2022/04/10 00:05:08;;;;;;;1.15;0.30;;;;;;;23.67;54.81;99107.75;5040061;28;20414;-64
2022/04/10 00:07:34;;;;;;;0.50;0.30;;;;;;;23.68;53.82;99109.44;5038929;28;20108;-65
2022/04/10 00:09:59;;;;;;;0.68;0.30;;;;;;;23.73;54.14;99099.63;5039957;28;20128;-65
2022/04/10 00:12:25;;;;;;;1.05;0.20;;;;;;;23.76;53.81;99102.72;5039340;28;20380;-65
2022/04/10 00:14:50;;;;;;;0.82;0.20;;;;;;;23.77;52.45;99100.78;5039041;28;20394;-64
2022/04/10 00:17:15;;;;;;;1.70;0.20;;;;;;;23.78;53.15;99107.94;5039081;28;20049;-65
2022/04/10 00:19:41;;;;;;;2.30;0.40;;;;;;;23.82;52.82;99107.19;5038683;28;20483;-65
2022/04/10 00:22:06;;;;;;;1.55;0.55;;;;;;;23.83;52.76;99113.50;5038772;28;20025;-65
2022/04/10 00:24:32;;;;;;;0.90;0.22;;;;;;;23.82;52.50;99112.69;5035654;28;20021;-66
2022/04/10 00:26:57;;;;;;;1.05;0.30;;;;;;;23.87;52.87;99112.78;5042588;28;20431;-65
2022/04/10 00:29:22;;;;;;;0.80;0.15;;;;;;;23.86;52.05;99124.84;5036142;28;20120;-66
2022/04/10 00:31:48;;;;;;;1.10;0.35;;;;;;;23.90;52.23;99125.16;5036114;28;20029;-66
2022/04/10 00:34:14;;;;;;;1.80;0.40;;;;;;;23.90;52.04;99122.44;5036023;28;20122;-65
2022/04/10 00:36:39;;;;;;;1.08;0.17;;;;;;;23.92;51.43;99128.50;5035352;28;20037;-65
2022/04/10 00:39:04;;;;;;;0.77;0.20;;;;;;;23.93;51.31;99130.16;5035791;28;20037;-65
2022/04/10 00:41:30;;;;;;;0.68;0.30;;;;;;;23.95;51.39;99130.75;5035586;28;20029;-65
2022/04/10 00:44:10;;;;;;;1.67;0.52;;;;;;;23.97;51.68;99128.56;5035682;28;20029;-65
2022/04/10 00:46:36;;;;;;;1.80;0.65;;;;;;;23.96;51.15;99132.41;5035408;28;20468;-66
2022/04/10 00:49:02;;;;;;;1.38;0.22;;;;;;;23.96;50.83;99126.91;5035157;28;20416;-65
2022/04/10 00:51:40;;;;;;;1.45;0.35;;;;;;;23.99;50.62;99137.38;5035120;28;20045;-66
2022/04/10 00:54:18;;;;;;;0.75;0.20;;;;;;;24.00;51.05;99142.63;5035748;28;20464;-65
2022/04/10 00:56:44;;;;;;;0.57;0.20;;;;;;;24.00;50.25;99134.38;5035270;28;20112;-65
2022/04/10 00:59:11;;;;;;;0.98;0.30;;;;;;;24.02;51.31;99136.91;5035261;28;20022;-67
2022/04/10 01:01:37;;;;;;;0.70;0.32;;;;;;;24.03;50.44;99138.56;5035485;28;20025;-65
2022/04/10 01:04:04;;;;;;;0.77;0.25;;;;;;;24.05;50.56;99136.41;5035270;28;20028;-66
2022/04/10 01:06:32;;;;;;;1.48;0.32;;;;;;;24.04;50.64;99145.72;5035233;28;20061;-65
2022/04/10 01:08:57;;;;;;;1.98;0.38;;;;;;;24.07;50.91;99147.97;5034981;28;20053;-66
2022/04/10 01:11:23;;;;;;;2.30;0.30;;;;;;;24.05;50.61;99147.38;5054109;28;20412;-65
2022/04/10 01:13:49;;;;;;;1.02;0.30;;;;;;;24.05;50.57;99147.38;5038119;28;20035;-65
2022/04/10 01:16:14;;;;;;;1.35;0.47;;;;;;;24.07;50.64;99142.47;5034820;28;20068;-65
2022/04/10 01:18:41;;;;;;;0.77;0.22;;;;;;;24.09;50.48;99147.72;5038169;28;20052;-65
2022/04/10 01:21:07;;;;;;;1.63;0.30;;;;;;;24.10;50.32;99139.22;5034012;28;20029;-66
2022/04/10 01:23:32;;;;;;;0.45;0.25;;;;;;;24.09;50.47;99143.06;5034574;28;20025;-65
2022/04/10 01:25:57;;;;;;;1.17;0.20;;;;;;;24.11;50.11;99151.88;5034792;28;20034;-66
2022/04/10 01:28:23;;;;;;;1.40;0.40;;;;;;;24.11;50.55;99148.28;5034304;28;20037;-66
2022/04/10 01:30:48;;;;;;;0.35;0.20;;;;;;;24.12;50.22;99150.78;5034590;28;20445;-66
2022/04/10 01:33:13;;;;;;;1.02;0.25;;;;;;;24.11;50.41;99146.38;5034631;28;20456;-65
2022/04/10 01:35:39;;;;;;;1.83;0.38;;;;;;;;;;5034474;28;20063;-66
2022/04/10 01:38:05;;;;;;;2.25;0.50;;;;;;;24.14;50.23;99156.84;5034474;28;20227;-65
2022/04/10 01:40:31;;;;;;;0.40;0.20;;;;;;;24.12;50.35;99159.00;5035466;28;20139;-66
2022/04/10 01:42:57;;;;;;;1.23;0.50;;;;;;;24.17;50.62;99167.31;5034645;28;20044;-66
2022/04/10 01:45:22;;;;;;;1.75;0.30;;;;;;;24.17;50.61;99161.84;5034385;28;20524;-65
2022/04/10 01:47:51;;;;;;;1.27;0.30;;;;;;;24.18;50.74;99174.47;5034978;28;20063;-65
2022/04/10 01:50:17;;;;;;;0.88;0.20;;;;;;;24.17;50.20;99178.31;5034583;28;20108;-65
2022/04/10 01:52:42;;;;;;;0.95;0.20;;;;;;;24.16;50.23;99176.66;5034438;28;20450;-65
2022/04/10 01:55:08;;;;;;;2.75;0.85;;;;;;;24.19;50.59;99181.66;5037082;28;20475;-65
2022/04/10 01:57:34;;;;;;;0.80;0.22;;;;;;;24.20;50.95;99183.31;5036677;28;20032;-65
2022/04/10 01:59:59;;;;;;;1.27;0.50;;;;;;;24.18;50.88;99179.97;5034130;28;20036;-65
2022/04/10 02:02:25;;;;;;;0.68;0.30;;;;;;;24.19;50.30;99181.66;5034147;28;20025;-65
2022/04/10 02:04:51;;;;;;;1.38;0.45;;;;;;;24.19;50.77;99183.56;5033547;28;20033;-65
2022/04/10 02:07:17;;;;;;;1.58;0.57;;;;;;;24.18;50.01;99179.97;5033585;28;20025;-65
2022/04/10 02:09:42;;;;;;;1.20;0.65;;;;;;;24.21;50.06;99182.25;5034218;28;20295;-65
2022/04/10 02:12:08;;;;;;;0.60;0.20;;;;;;;24.23;49.96;99188.31;5033982;28;20060;-65
2022/04/10 02:14:33;;;;;;;0.68;0.25;;;;;;;24.22;49.56;99188.56;5033686;28;20603;-65
2022/04/10 02:16:59;;;;;;;1.15;0.20;;;;;;;24.22;50.55;99186.66;5034375;28;20033;-64
2022/04/10 02:19:24;;;;;;;1.38;0.32;;;;;;;24.22;50.25;99191.31;5033592;28;20023;-65
2022/04/10 02:21:49;;;;;;;1.65;0.47;;;;;;;24.21;50.34;99190.47;5033904;28;20025;-66
2022/04/10 02:24:14;;;;;;;2.17;0.20;;;;;;;24.20;49.73;99191.56;5033718;28;20033;-65
2022/04/10 02:26:40;;;;;;;1.00;0.25;;;;;;;24.21;50.28;99195.97;5033407;28;20072;-66
2022/04/10 02:29:05;;;;;;;1.95;0.60;;;;;;;24.22;50.41;99197.63;5033484;28;20029;-65
2022/04/10 02:31:30;;;;;;;1.35;0.20;;;;;;;24.23;50.50;99193.81;5035198;28;20052;-66
2022/04/10 02:33:56;;;;;;;1.92;0.35;;;;;;;24.24;49.58;99195.47;5033559;28;20108;-65
2022/04/10 02:36:22;;;;;;;0.40;0.30;;;;;;;24.23;49.37;99204.78;5033263;28;20025;-66
2022/04/10 02:38:47;;;;;;;1.13;0.40;;;;;;;24.23;49.92;99204.78;5034078;28;20100;-65
2022/04/10 02:41:12;;;;;;;1.08;0.40;;;;;;;24.24;50.19;99211.94;5046905;28;20036;-65
2022/04/10 02:43:39;;;;;;;3.63;0.32;;;;;;;24.27;49.75;99210.59;5042474;28;20346;-66
2022/04/10 02:46:05;;;;;;;0.90;0.32;;;;;;;24.23;50.08;99206.69;5033567;28;20174;-65
2022/04/10 02:48:30;;;;;;;1.00;0.20;;;;;;;24.22;49.93;99208.63;5032205;28;20029;-66
2022/04/10 02:50:55;;;;;;;1.40;0.40;;;;;;;24.24;50.52;99209.19;5033777;28;20026;-64
2022/04/10 02:53:21;;;;;;;2.08;0.30;;;;;;;24.22;49.47;99203.13;5035439;28;20451;-65
2022/04/10 02:55:46;;;;;;;1.98;0.30;;;;;;;24.23;49.73;99214.94;5033539;28;20041;-65
2022/04/10 02:58:12;;;;;;;1.55;0.10;;;;;;;24.28;50.28;99213.09;5032995;28;20021;-65
2022/04/10 03:00:37;;;;;;;1.52;0.30;;;;;;;24.26;50.04;99217.19;5033138;28;20022;-66
2022/04/10 03:03:02;;;;;;;1.05;0.20;;;;;;;24.26;50.24;99219.94;5033249;28;20025;-66
2022/04/10 03:05:27;;;;;;;1.08;0.20;;;;;;;24.23;49.58;99225.91;5031622;28;20037;-65
2022/04/10 03:07:53;;;;;;;0.60;0.20;;;;;;;24.25;49.58;99224.59;5033010;28;20034;-65
2022/04/10 03:10:18;;;;;;;1.20;0.40;;;;;;;24.27;49.75;99222.41;5032628;28;20021;-66
2022/04/10 03:12:43;;;;;;;0.52;0.20;;;;;;;24.26;50.11;99220.75;5032978;28;20037;-65
2022/04/10 03:15:09;;;;;;;1.35;0.35;;;;;;;24.25;50.16;99230.06;5032731;28;20021;-65
2022/04/10 03:17:34;;;;;;;1.15;0.20;;;;;;;24.25;49.48;99224.59;5033086;28;20070;-65
2022/04/10 03:20:00;;;;;;;1.58;0.70;;;;;;;24.26;49.54;99231.75;5032547;28;20017;-66
2022/04/10 03:22:25;;;;;;;1.33;0.25;;;;;;;24.28;49.39;99235.06;5040340;28;20408;-65
2022/04/10 03:24:50;;;;;;;0.98;0.30;;;;;;;24.26;50.05;99231.75;5033233;28;20052;-65
2022/04/10 03:27:16;;;;;;;1.92;0.40;;;;;;;24.27;49.33;99227.06;5033005;28;20051;-66
2022/04/10 03:29:41;;;;;;;1.15;0.40;;;;;;;24.27;49.37;99227.91;5033122;28;20021;-66
2022/04/10 03:32:07;;;;;;;0.98;0.25;;;;;;;24.27;49.68;99227.06;5033193;28;20393;-65
2022/04/10 03:34:33;;;;;;;1.33;0.63;;;;;;;24.27;49.45;99233.41;5033291;28;20045;-65
2022/04/10 03:36:58;;;;;;;0.30;0.20;;;;;;;24.29;49.85;99233.19;5032866;28;20112;-65
2022/04/10 03:39:23;;;;;;;2.88;0.38;;;;;;;24.29;50.00;99236.75;5033106;28;20075;-65
2022/04/10 03:41:49;;;;;;;1.67;0.50;;;;;;;24.29;49.41;99231.28;5032929;28;20021;-65
2022/04/10 03:44:14;;;;;;;2.10;0.38;;;;;;;24.29;49.81;99239.50;5033730;28;20626;-65
2022/04/10 03:46:39;;;;;;;1.00;0.45;;;;;;;24.29;49.86;99242.25;5032863;28;20022;-65
2022/04/10 03:49:05;;;;;;;1.48;0.38;;;;;;;24.28;49.31;99251.53;5032323;28;20468;-66
2022/04/10 03:51:30;;;;;;;0.65;0.30;;;;;;;24.28;49.62;99248.78;5032478;28;20041;-65
2022/04/10 03:53:55;;;;;;;0.40;0.20;;;;;;;24.30;49.93;99254.91;5032535;28;20049;-66
2022/04/10 03:56:20;;;;;;;0.75;0.38;;;;;;;24.30;49.84;99257.66;5032316;28;20048;-65
2022/04/10 03:58:46;;;;;;;1.02;0.22;;;;;;;24.31;49.04;99261.22;5032394;28;20384;-65
2022/04/10 04:01:11;;;;;;;1.75;0.25;;;;;;;24.32;49.36;99264.81;5035047;28;20025;-66
2022/04/10 04:03:37;;;;;;;3.38;0.68;;;;;;;24.47;49.20;99267.81;5036330;28;20098;-64
2022/04/10 04:06:02;;;;;;;0.52;0.10;;;;;;;24.57;48.33;99273.47;5035982;28;20033;-65
2022/04/10 04:08:28;;;;;;;0.73;0.20;;;;;;;24.64;47.90;99276.88;5034822;28;20301;-65
2022/04/10 04:10:53;;;;;;;0.17;0.08;;;;;;;24.70;47.99;99286.06;5045005;28;20033;-66
2022/04/10 04:13:18;;;;;;;1.65;0.35;;;;;;;24.72;48.18;99284.72;5035726;28;20535;-65
2022/04/10 04:15:43;;;;;;;0.65;0.10;;;;;;;24.76;47.93;99291.38;5035205;28;20039;-65
2022/04/10 04:18:09;;;;;;;2.22;0.60;;;;;;;24.79;47.87;99293.63;5036558;28;20079;-65
2022/04/10 04:20:34;;;;;;;1.45;0.20;;;;;;;24.79;47.27;99299.09;5036142;28;20096;-64
2022/04/10 04:23:00;;;;;;;1.65;0.32;;;;;;;24.82;46.80;99301.34;5036038;28;20025;-65
2022/04/10 04:25:25;;;;;;;0.90;0.13;;;;;;;24.85;46.79;99300.84;5035537;28;20029;-66
2022/04/10 04:27:50;;;;;;;0.95;0.22;;;;;;;24.87;47.00;99298.69;5036112;28;20025;-66
2022/04/10 04:30:16;;;;;;;0.45;0.20;;;;;;;24.84;47.46;99301.94;5036262;28;20472;-65
2022/04/10 04:32:41;;;;;;;1.60;0.38;;;;;;;24.90;46.94;99306.44;5034161;28;20033;-66
2022/04/10 04:35:09;;;;;;;0.82;0.40;;;;;;;24.94;46.15;99303.19;5035837;28;20080;-65
2022/04/10 04:37:40;;;;;;;0.43;0.25;;;;;;;24.94;46.76;99308.69;5035613;28;20112;-66
2022/04/10 04:40:08;;;;;;;0.82;0.10;;;;;;;24.94;45.97;99319.69;5035195;28;20093;-67
2022/04/10 04:42:34;;;;;;;0.30;0.15;;;;;;;24.93;46.61;99318.00;5035518;28;20043;-67
2022/04/10 04:44:59;;;;;;;1.80;0.38;;;;;;;24.92;46.62;99327.34;5035637;28;20464;-67
2022/04/10 04:47:24;;;;;;;0.77;0.30;;;;;;;24.94;46.54;99330.66;5035418;28;20022;-67
2022/04/10 04:49:50;;;;;;;1.08;0.45;;;;;;;24.92;46.48;99327.34;5035356;28;20040;-68
2022/04/10 04:52:16;;;;;;;1.05;0.20;;;;;;;24.94;46.25;99328.75;5034540;28;20188;-67
2022/04/10 04:54:41;;;;;;;1.05;0.30;;;;;;;24.94;45.91;99330.66;5045847;28;20032;-67
2022/04/10 04:57:06;;;;;;;1.08;0.20;;;;;;;24.90;45.92;99336.69;5055914;28;20053;-67
2022/04/10 04:59:31;;;;;;;0.88;0.28;;;;;;;24.95;46.26;99343.34;5034897;28;20021;-67
2022/04/10 05:01:57;;;;;;;0.88;0.30;;;;;;;24.95;45.85;99343.34;5035977;28;20075;-68
2022/04/10 05:04:22;;;;;;;1.80;0.30;;;;;;;24.98;46.64;99348.31;5033808;28;20036;-67
2022/04/10 05:06:47;;;;;;;0.73;0.30;;;;;;;24.96;45.76;99350.50;5035272;28;20192;-67
2022/04/10 05:09:12;;;;;;;1.60;0.38;;;;;;;25.03;45.90;99356.69;5035630;28;20113;-67
2022/04/10 05:11:38;;;;;;;0.52;0.40;;;;;;;25.03;45.43;99360.28;5034822;28;20025;-67
2022/04/10 05:14:04;;;;;;;0.30;0.15;;;;;;;25.03;45.67;99362.19;5035248;28;20024;-67
2022/04/10 05:16:29;;;;;;;1.25;0.40;;;;;;;25.02;45.22;99361.34;5033105;28;20120;-67
2022/04/10 05:18:55;;;;;;;1.35;0.30;;;;;;;25.07;45.32;99364.19;5035124;28;20120;-66
2022/04/10 05:21:20;;;;;;;1.77;0.28;;;;;;;25.06;45.58;99364.44;5034516;28;20032;-66
2022/04/10 05:23:45;;;;;;;0.30;0.20;;;;;;;25.04;45.71;99372.13;5034888;28;20030;-66
2022/04/10 05:26:11;;;;;;;0.73;0.22;;;;;;;25.09;44.87;99378.50;5035909;28;20030;-66
2022/04/10 05:28:36;;;;;;;0.98;0.25;;;;;;;25.12;45.65;99374.44;5034673;28;20029;-67
2022/04/10 05:31:03;;;;;;;0.30;0.22;;;;;;;25.12;45.35;99385.44;5033227;28;20394;-66
2022/04/10 05:33:29;;;;;;;0.40;0.13;;;;;;;25.17;45.08;99383.56;5034412;28;20036;-66
2022/04/10 05:35:55;;;;;;;0.50;0.20;;;;;;;25.13;45.22;99385.16;5034461;28;20029;-66
2022/04/10 05:38:21;;;;;;;1.70;0.30;;;;;;;25.15;45.38;99393.16;5034314;28;20163;-66
2022/04/10 05:40:52;;;;;;;0.93;0.30;;;;;;;25.13;46.08;99398.91;5036192;28;20504;-66
2022/04/10 05:43:18;;;;;;;0.32;0.10;;;;;;;25.19;45.01;99400.69;5034234;28;20109;-66
2022/04/10 05:45:43;;;;;;;0.80;0.40;;;;;;;25.24;45.44;99396.34;5034599;28;20033;-65
2022/04/10 05:48:09;;;;;;;0.30;0.30;;;;;;;25.21;44.58;99396.84;5034332;28;20035;-66
2022/04/10 05:50:34;;;;;;;0.95;0.20;;;;;;;25.21;45.34;99408.69;5036738;28;20036;-66
2022/04/10 05:53:02;;;;;;;0.47;0.17;;;;;;;25.23;45.69;99405.69;5034383;28;20052;-65
2022/04/10 05:55:28;;;;;;;1.65;0.47;;;;;;;25.20;45.02;99415.28;5034080;28;20481;-66
2022/04/10 05:57:54;;;;;;;1.15;0.22;;;;;;;25.25;44.63;99415.34;5034261;28;20315;-65
2022/04/10 06:00:21;;;;;;;0.45;0.22;;;;;;;25.27;45.62;99428.84;5034074;28;20484;-65
2022/04/10 06:02:46;;;;;;;0.20;0.10;;;;;;;25.24;44.69;99429.34;5033858;28;20067;-65
2022/04/10 06:05:11;;;;;;;0.80;0.38;;;;;;;25.26;45.13;99438.16;5033968;28;20060;-65
2022/04/10 06:07:37;;;;;;;0.47;0.10;;;;;;;25.24;44.60;99430.19;5033758;28;20238;-65
2022/04/10 06:10:04;;;;;;;1.10;0.47;;;;;;;25.23;44.89;99438.69;5032349;28;20515;-65
2022/04/10 06:12:29;;;;;;;1.05;0.35;;;;;;;25.28;45.02;99447.84;5034301;28;20117;-65
2022/04/10 06:14:55;;;;;;;0.98;0.63;;;;;;;25.29;44.75;99449.50;5033814;28;20104;-65
2022/04/10 06:17:20;;;;;;;1.25;0.20;;;;;;;25.25;45.51;99448.34;5035460;28;20096;-67
2022/04/10 06:19:46;;;;;;;1.95;0.10;;;;;;;25.31;45.51;99452.84;5033858;28;20028;-66
2022/04/10 06:22:11;;;;;;;0.57;0.30;;;;;;;25.34;45.27;99457.00;5053645;28;20009;-65
2022/04/10 06:24:37;;;;;;;0.55;0.10;;;;;;;25.34;44.97;99444.06;5044475;28;20040;-65
2022/04/10 06:27:03;;;;;;;0.93;0.20;;;;;;;25.35;44.54;99454.00;5033586;28;20025;-66
2022/04/10 06:29:28;;;;;;;0.90;0.30;;;;;;;25.35;44.84;99461.41;5033079;28;20453;-64
2022/04/10 06:31:54;;;;;;;0.95;0.20;;;;;;;25.34;44.91;99463.31;5032245;28;20029;-64
2022/04/10 06:34:19;;;;;;;0.57;0.20;;;;;;;25.30;44.40;99467.66;5033079;28;20063;-64
2022/04/10 06:36:44;;;;;;;0.82;0.30;;;;;;;25.33;45.16;99458.91;5033361;28;20028;-64
2022/04/10 06:39:10;;;;;;;2.17;0.30;;;;;;;25.32;44.68;99471.00;5033166;28;20518;-64
2022/04/10 06:41:35;;;;;;;0.35;0.10;;;;;;;25.30;45.30;99461.34;5033086;28;20033;-65
2022/04/10 06:44:01;;;;;;;0.52;0.40;;;;;;;25.36;45.26;99466.69;5033319;28;20022;-65
2022/04/10 06:46:26;;;;;;;0.90;0.20;;;;;;;25.38;45.04;99472.78;5032887;28;20469;-66
2022/04/10 06:48:52;;;;;;;1.30;0.20;;;;;;;25.35;44.07;99476.00;5033125;28;20028;-65
2022/04/10 06:51:18;;;;;;;0.43;0.10;;;;;;;25.34;44.94;99479.00;5032874;28;20445;-66
2022/04/10 06:53:43;;;;;;;0.63;0.20;;;;;;;25.38;44.42;99480.19;5033198;28;20079;-65
2022/04/10 06:56:08;;;;;;;1.15;0.25;;;;;;;25.29;44.26;99488.00;5031714;28;20393;-65
2022/04/10 06:58:34;;;;;;;0.30;0.20;;;;;;;25.30;44.88;99492.44;5031581;28;20029;-65
2022/04/10 07:00:59;;;;;;;0.80;0.43;;;;;;;25.39;45.27;99492.84;5033039;28;20100;-65
2022/04/10 07:03:25;;;;;;;0.85;0.30;;;;;;;25.40;45.29;99498.09;5032925;28;20040;-66
2022/04/10 07:05:50;;;;;;;1.33;0.30;;;;;;;25.38;45.16;99497.53;5032976;28;20036;-66
2022/04/10 07:08:15;;;;;;;1.58;0.50;;;;;;;25.38;44.35;99503.03;5032729;28;20072;-66
2022/04/10 07:10:41;;;;;;;0.82;0.40;;;;;;;25.40;44.75;99505.53;5045714;28;20042;-65
2022/04/10 07:13:06;;;;;;;0.32;0.20;;;;;;;25.41;44.40;99508.03;5032733;28;20100;-65
2022/04/10 07:15:32;;;;;;;1.13;0.30;;;;;;;25.40;44.98;99506.34;5032579;28;20060;-65
2022/04/10 07:17:58;;;;;;;0.57;0.20;;;;;;;25.40;45.18;99511.84;5032586;28;20029;-65
2022/04/10 07:20:25;;;;;;;1.13;0.30;;;;;;;25.41;44.41;99509.94;5032724;28;20064;-65
2022/04/10 07:25:35;;;;;;;0.25;0.20;;;;;;;25.39;44.79;99523.13;5032848;28;20032;-66
2022/04/10 07:28:00;;;;;;;1.20;0.22;;;;;;;25.38;44.54;99525.03;5032823;28;20049;-65
2022/04/10 07:30:26;;;;;;;0.90;0.10;;;;;;;25.41;44.41;99524.53;5032889;28;20021;-66
2022/04/10 07:32:53;;;;;;;0.75;0.28;;;;;;;25.42;45.04;99525.38;5033079;28;20056;-65
2022/04/10 07:35:19;;;;;;;2.33;0.20;;;;;;;25.47;45.21;99529.03;5035437;28;20088;-65
2022/04/10 07:37:45;;;;;;;0.77;0.50;;;;;;;25.43;44.55;99533.38;5036956;28;20025;-65
2022/04/10 07:40:10;;;;;;;1.20;0.40;;;;;;;25.44;44.93;99534.19;5036668;28;20068;-65
2022/04/10 07:42:39;;;;;;;0.85;0.30;;;;;;;25.40;45.08;99544.03;5036855;28;20029;-65
2022/04/10 07:45:06;;;;;;;1.20;0.30;;;;;;;25.44;44.51;99543.28;5036871;28;20017;-65
2022/04/10 07:47:31;;;;;;;1.10;0.30;;;;;;;25.49;44.87;99553.53;5036216;28;20033;-66
2022/04/10 07:49:57;;;;;;;0.93;0.20;;;;;;;25.43;44.50;99555.38;5036465;28;20368;-66
2022/04/10 07:52:23;;;;;;;0.40;0.20;;;;;;;25.42;44.80;99550.13;5035852;28;20042;-66
2022/04/10 07:54:49;;;;;;;0.93;0.40;;;;;;;25.47;44.88;99550.19;5036728;28;20424;-65
2022/04/10 07:57:16;;;;;;;1.08;0.40;;;;;;;25.45;43.72;99560.63;5058304;28;20018;-65
2022/04/10 07:59:41;;;;;;;0.73;0.28;;;;;;;25.48;44.49;99569.22;5041866;28;20029;-66
2022/04/10 08:02:06;;;;;;;1.15;0.30;;;;;;;25.49;44.53;99570.88;5036249;28;20168;-66
2022/04/10 08:04:32;;;;;;;0.50;0.10;;;;;;;25.47;44.34;99570.28;5035812;28;20036;-66
2022/04/10 08:06:57;;;;;;;0.28;0.10;;;;;;;25.47;44.48;99572.22;5036912;28;20030;-65
2022/04/10 08:09:22;;;;;;;1.10;0.20;;;;;;;25.50;44.56;99578.03;5036196;28;20029;-65
2022/04/10 08:11:48;;;;;;;0.60;0.20;;;;;;;25.49;44.10;99581.88;5036167;28;20057;-65
2022/04/10 08:14:13;;;;;;;0.17;0.10;;;;;;;25.49;44.11;99581.03;5035867;28;20096;-66
2022/04/10 08:16:39;;;;;;;1.20;0.20;;;;;;;25.50;44.44;99594.56;5035857;28;20053;-65
2022/04/10 08:19:04;;;;;;;1.25;0.30;;;;;;;25.50;44.06;99590.97;5036233;28;20029;-66
2022/04/10 08:21:29;;;;;;;0.95;0.20;;;;;;;25.47;44.53;99589.56;5035496;28;20108;-66
2022/04/10 08:23:54;;;;;;;0.77;0.25;;;;;;;25.47;43.99;99606.06;5035652;28;20369;-63
2022/04/10 08:26:20;;;;;;;0.55;0.17;;;;;;;25.53;44.30;99597.88;5035644;28;20036;-65
2022/04/10 08:28:45;;;;;;;0.60;0.30;;;;;;;25.54;44.56;99605.91;5035650;28;20045;-64
2022/04/10 08:31:10;;;;;;;0.20;0.20;;;;;;;25.52;44.26;99613.56;5035146;28;20025;-64
2022/04/10 08:33:36;;;;;;;0.98;0.17;;;;;;;25.52;43.96;99623.72;5035565;28;20037;-65
2022/04/10 08:36:01;;;;;;;0.68;0.20;;;;;;;25.52;44.15;99619.06;5035686;28;20473;-64
2022/04/10 08:38:27;;;;;;;0.20;0.00;;;;;;;25.55;44.26;99613.09;5035407;28;20056;-64
2022/04/10 08:40:59;;;;;;;1.67;0.75;;;;;;;25.55;43.82;99628.75;5035281;28;20096;-64
2022/04/10 08:43:25;;;;;;;1.60;0.40;;;;;;;25.55;44.59;99634.28;5038619;28;20025;-63
2022/04/10 08:45:51;;;;;;;0.50;0.30;;;;;;;25.52;43.95;99634.75;5038883;28;20036;-64
2022/04/10 08:48:17;;;;;;;1.08;0.38;;;;;;;25.54;44.17;99632.59;5035215;28;20074;-64
2022/04/10 08:50:43;;;;;;;1.23;0.10;;;;;;;25.53;44.32;99636.41;5035063;28;20033;-64
2022/04/10 08:53:09;;;;;;;0.82;0.20;;;;;;;25.53;44.13;99637.28;5035314;28;20049;-64
2022/04/10 08:55:34;;;;;;;0.75;0.43;;;;;;;25.53;44.70;99641.91;5035482;28;20025;-65
2022/04/10 08:58:02;;;;;;;0.55;0.20;;;;;;;25.55;43.92;99639.78;5035539;28;20053;-65
2022/04/10 09:00:28;;;;;;;0.85;0.20;;;;;;;25.55;44.51;99639.78;5035051;28;20024;-66
2022/04/10 09:02:53;;;;;;;0.75;0.20;;;;;;;25.55;44.47;99648.88;5035133;28;20025;-65
2022/04/10 09:05:20;;;;;;;0.77;0.20;;;;;;;25.56;44.17;99663.47;5034879;28;20025;-65
2022/04/10 09:08:05;;;;;;;0.57;0.20;;;;;;;25.56;44.43;99663.47;5034841;28;20033;-65
2022/04/10 09:10:31;;;;;;;0.93;0.22;;;;;;;25.55;43.93;99656.28;5034745;28;20028;-65
2022/04/10 09:12:56;;;;;;;1.80;0.52;;;;;;;25.54;43.86;99662.88;5034839;28;20025;-65
2022/04/10 09:15:31;;;;;;;1.20;0.40;;;;;;;25.54;43.62;99668.38;5034488;28;20461;-65
2022/04/10 09:17:56;;;;;;;1.48;0.15;;;;;;;25.56;44.25;99674.47;5034923;28;20033;-65
2022/04/10 09:20:21;;;;;;;1.33;0.30;;;;;;;25.58;44.08;99672.28;5034518;28;20045;-65
2022/04/10 09:22:47;;;;;;;1.70;0.30;;;;;;;25.56;43.75;99674.47;5034630;28;20548;-66
2022/04/10 09:25:16;;;;;;;0.47;0.20;;;;;;;25.57;43.70;99671.47;5034803;28;20029;-65
2022/04/10 09:27:49;;;;;;;0.68;0.10;;;;;;;25.57;44.47;99681.63;5037617;28;20080;-65
2022/04/10 09:30:16;;;;;;;0.30;0.22;;;;;;;25.56;43.63;99679.97;5034239;28;20033;-65
2022/04/10 09:32:52;;;;;;;1.13;0.28;;;;;;;25.58;44.41;99688.81;5034169;28;20029;-65
2022/04/10 09:35:22;;;;;;;1.55;0.22;;;;;;;25.58;43.53;99675.88;5035057;28;20025;-65
2022/04/10 09:37:49;;;;;;;0.47;0.17;;;;;;;25.58;43.83;99691.56;5034459;28;20184;-65
2022/04/10 09:40:31;;;;;;;2.03;0.40;;;;;;;25.58;44.21;99694.31;5034608;28;20060;-66
2022/04/10 09:42:58;;;;;;;1.45;0.45;;;;;;;25.57;43.72;99703.66;5034310;28;20029;-65
2022/04/10 09:45:30;;;;;;;1.00;0.20;;;;;;;25.58;43.63;99702.56;5034125;28;20041;-65
2022/04/10 09:47:56;;;;;;;0.35;0.25;;;;;;;25.56;44.09;99701.97;5032948;28;20033;-65
2022/04/10 09:50:30;;;;;;;2.10;0.35;;;;;;;25.57;43.60;99703.66;5032562;28;20022;-64
2022/04/10 09:52:56;;;;;;;1.58;0.20;;;;;;;25.58;44.11;99710.81;5033890;28;20089;-66
2022/04/10 09:55:35;;;;;;;0.28;0.20;;;;;;;25.57;44.05;99709.97;5033916;28;20101;-65
2022/04/10 09:58:05;;;;;;;0.45;0.20;;;;;;;25.58;44.26;99716.31;5035494;28;20029;-64
2022/04/10 10:00:30;;;;;;;1.63;0.20;;;;;;;25.57;43.44;99715.47;5032363;28;20037;-65
2022/04/10 10:02:56;;;;;;;0.32;0.20;;;;;;;25.58;43.52;99724.56;5034422;28;20108;-64
2022/04/10 10:05:23;;;;;;;0.32;0.20;;;;;;;25.55;43.50;99727.81;5033830;28;20030;-66
2022/04/10 10:07:49;;;;;;;1.17;0.20;;;;;;;25.57;43.94;99721.00;5038754;28;20040;-65
2022/04/10 10:10:19;;;;;;;1.23;0.45;;;;;;;25.57;43.61;99720.16;5033450;28;20108;-65
2022/04/10 10:12:46;;;;;;;0.50;0.38;;;;;;;25.57;44.11;99725.66;5033732;28;20029;-66
2022/04/10 10:15:11;;;;;;;0.10;0.10;;;;;;;25.59;43.94;99726.25;5033699;28;20029;-66
2022/04/10 10:17:37;;;;;;;0.43;0.10;;;;;;;25.60;43.89;99727.91;5033766;28;20025;-65
2022/04/10 10:20:04;;;;;;;0.25;0.20;;;;;;;25.59;43.84;99729.84;5034032;28;20465;-65
2022/04/10 10:22:29;;;;;;;2.00;0.20;;;;;;;25.59;43.85;99740.84;5033462;28;20488;-66
2022/04/10 10:25:27;;;;;;;0.52;0.20;;;;;;;25.62;43.40;99734.00;5033471;28;20116;-65
2022/04/10 10:28:11;;;;;;;0.50;0.20;;;;;;;25.60;43.38;99744.44;4952800;29;20170;-66
2022/04/10 10:30:48;;;;;;;0.80;0.15;;;;;;;25.56;43.85;99746.84;4953054;29;20474;-65
2022/04/10 10:33:18;;;;;;;1.05;0.28;;;;;;;25.60;43.96;99752.69;4952724;29;20031;-65
2022/04/10 10:35:47;;;;;;;0.95;0.30;;;;;;;25.61;43.42;99752.44;4952981;29;20038;-65
2022/04/10 10:38:25;;;;;;;0.65;0.32;;;;;;;25.60;43.17;99759.03;4952665;29;20518;-65
2022/04/10 10:40:52;;;;;;;0.75;0.40;;;;;;;25.40;44.85;99764.13;4952926;29;20035;-66
2022/04/10 10:43:20;;;;;;;1.90;0.30;;;;;;;24.74;47.33;99763.47;4953383;29;20042;-63
2022/04/10 10:45:45;;;;;;;0.77;0.30;;;;;;;24.36;49.59;99763.94;4953898;29;20151;-65
2022/04/10 10:48:32;;;;;;;1.83;0.70;;;;;;;24.03;46.21;99775.41;4961094;29;20055;-65
2022/04/10 10:51:08;;;;;;;1.30;0.20;;;;;;;23.88;45.73;99778.56;4956012;29;20047;-65
2022/04/10 10:53:46;;;;;;;0.95;0.28;;;;;;;23.70;43.07;99782.22;4952526;29;20035;-66
2022/04/10 10:56:14;;;;;;;0.85;0.20;;;;;;;23.66;43.78;99791.09;4952522;29;20066;-65
2022/04/10 10:58:40;;;;;;;1.45;0.35;;;;;;;23.63;43.91;99791.56;4952212;29;20032;-65
2022/04/10 11:01:06;;;;;;;0.80;0.35;;;;;;;23.68;42.71;99805.44;4952583;29;20034;-64
2022/04/10 11:03:32;;;;;;;0.90;0.25;;;;;;;23.65;43.06;99803.16;4968781;28;20083;-65
2022/04/10 11:06:05;;;;;;;1.13;0.38;;;;;;;23.57;42.72;99798.84;5032866;28;20108;-66
2022/04/10 11:08:38;;;;;;;0.60;0.20;;;;;;;23.56;42.62;99816.34;5032880;28;20032;-66
2022/04/10 11:11:05;;;;;;;0.73;0.30;;;;;;;23.54;43.28;99810.25;5033550;28;20025;-65
2022/04/10 11:13:42;;;;;;;2.28;0.40;;;;;;;23.49;42.44;99812.81;5032805;28;20025;-66
2022/04/10 11:16:12;;;;;;;1.02;0.50;;;;;;;23.39;43.29;99818.03;5033121;28;20048;-65
2022/04/10 11:18:42;;;;;;;1.13;0.38;;;;;;;23.40;42.60;99825.19;5033406;28;20029;-65
2022/04/10 11:21:14;;;;;;;2.35;0.68;;;;;;;23.40;42.54;99819.69;5033000;28;20025;-65
2022/04/10 11:23:47;;;;;;;0.30;0.10;;;;;;;23.43;43.48;99819.22;5033198;28;20396;-65
2022/04/10 11:26:18;;;;;;;0.60;0.20;;;;;;;23.49;43.12;99823.78;5032597;28;20026;-64
2022/04/10 11:29:06;;;;;;;1.23;0.60;;;;;;;23.50;43.23;99830.94;5032890;28;20056;-65
2022/04/10 11:31:40;;;;;;;1.13;0.25;;;;;;;23.50;43.94;99835.59;5038949;28;20021;-64
2022/04/10 11:34:12;;;;;;;1.05;0.20;;;;;;;23.54;44.35;99843.16;5032583;28;20036;-64